createdAt,value
2023-03-22T00:00:37.310Z,100454.61
2023-03-22T00:01:54.433Z,100452.97
2023-03-22T00:02:57.368Z,100451.42
2023-03-22T00:04:00.497Z,100442.70
2023-03-22T00:05:03.400Z,100442.91
2023-03-22T00:06:06.706Z,100443.13
2023-03-22T00:07:09.473Z,100440.52
2023-03-22T00:08:13.506Z,100436.46
2023-03-22T00:09:16.299Z,100435.14
2023-03-22T00:10:19.035Z,100433.01
2023-03-22T00:11:24.338Z,100429.81
2023-03-22T00:12:27.075Z,100437.61
2023-03-22T00:13:30.393Z,100433.14
2023-03-22T00:14:33.214Z,100433.32
2023-03-22T00:15:36.527Z,100433.24
2023-03-22T00:16:39.606Z,100430.75
2023-03-22T00:17:42.365Z,100432.95
2023-03-22T00:18:45.535Z,100425.48
2023-03-22T00:19:49.616Z,100427.92
2023-03-22T00:20:57.443Z,100422.66
2023-03-22T00:22:01.224Z,100430.22
2023-03-22T00:23:04.051Z,100421.77
2023-03-22T00:24:07.228Z,100425.98
2023-03-22T00:25:10.856Z,100423.80
2023-03-22T00:26:15.483Z,100425.27
2023-03-22T00:27:18.614Z,100426.25
2023-03-22T00:28:21.887Z,100421.80
2023-03-22T00:29:24.632Z,100428.58
2023-03-22T00:30:29.323Z,100425.58
2023-03-22T00:31:32.159Z,100425.88
2023-03-22T00:32:36.456Z,100421.92
2023-03-22T00:33:39.335Z,100418.29
2023-03-22T00:34:42.116Z,100421.58
2023-03-22T00:35:53.110Z,100424.48
2023-03-22T00:36:56.689Z,100421.64
2023-03-22T00:38:14.173Z,100421.38
2023-03-22T00:39:18.024Z,100420.05
2023-03-22T00:40:20.805Z,100421.51
2023-03-22T00:41:24.396Z,100419.52
2023-03-22T00:42:27.449Z,100416.54
2023-03-22T00:43:30.194Z,100414.80
2023-03-22T00:44:33.118Z,100420.87
2023-03-22T00:45:40.975Z,100423.81
2023-03-22T00:46:43.769Z,100422.14
2023-03-22T00:47:46.590Z,100420.56
2023-03-22T00:48:49.750Z,100418.20
2023-03-22T00:49:52.534Z,100419.77
2023-03-22T00:50:55.322Z,100418.46
2023-03-22T00:51:58.254Z,100416.05
2023-03-22T00:53:01.319Z,100418.05
2023-03-22T00:54:04.150Z,100415.35
2023-03-22T00:55:07.902Z,100411.91
2023-03-22T00:56:16.083Z,100411.57
2023-03-22T00:57:41.607Z,100411.36
2023-03-22T00:58:44.431Z,100404.02
2023-03-22T00:59:47.359Z,100405.11
2023-03-22T01:00:50.391Z,100398.73
2023-03-22T01:01:53.266Z,100403.92
2023-03-22T01:02:59.832Z,100398.61
2023-03-22T01:04:03.096Z,100401.05
2023-03-22T01:05:07.531Z,100401.16
2023-03-22T01:06:11.485Z,100401.41
2023-03-22T01:07:21.569Z,100399.19
2023-03-22T01:08:24.532Z,100401.63
2023-03-22T01:09:29.629Z,100395.02
2023-03-22T01:10:32.443Z,100397.94
2023-03-22T01:11:35.341Z,100396.14
2023-03-22T01:12:38.926Z,100393.12
2023-03-22T01:13:41.993Z,100396.09
2023-03-22T01:14:45.271Z,100389.29
2023-03-22T01:15:51.041Z,100393.79
2023-03-22T01:16:57.382Z,100390.55
2023-03-22T01:18:00.685Z,100396.05
2023-03-22T01:19:03.665Z,100393.85
2023-03-22T01:20:07.886Z,100398.73
2023-03-22T01:21:10.703Z,100398.02
2023-03-22T01:22:13.686Z,100401.69
2023-03-22T01:23:16.632Z,100398.58
2023-03-22T01:24:19.601Z,100395.65
2023-03-22T01:25:22.456Z,100397.58
2023-03-22T01:26:25.227Z,100399.34
2023-03-22T01:27:28.033Z,100396.92
2023-03-22T01:28:31.250Z,100393.95
2023-03-22T01:29:35.436Z,100394.27
2023-03-22T01:30:41.958Z,100389.33
2023-03-22T01:31:45.043Z,100388.60
2023-03-22T01:32:48.657Z,100386.83
2023-03-22T01:33:53.038Z,100386.52
2023-03-22T01:34:57.624Z,100389.45
2023-03-22T01:36:01.941Z,100388.26
2023-03-22T01:37:05.361Z,100389.21
2023-03-22T01:38:08.860Z,100384.84
2023-03-22T01:39:15.321Z,100382.23
2023-03-22T01:40:19.132Z,100383.20
2023-03-22T01:41:22.996Z,100386.03
2023-03-22T01:42:27.016Z,100382.83
2023-03-22T01:43:30.573Z,100380.82
2023-03-22T01:44:33.878Z,100383.48
2023-03-22T01:45:47.509Z,100374.39
2023-03-22T01:46:51.489Z,100377.90
2023-03-22T01:48:15.719Z,100377.20
2023-03-22T01:49:29.224Z,100373.80
2023-03-22T01:50:32.464Z,100374.53
2023-03-22T01:51:35.621Z,100369.09
2023-03-22T01:53:00.510Z,100368.33
2023-03-22T01:54:10.823Z,100362.70
2023-03-22T01:55:13.977Z,100370.92
2023-03-22T01:56:25.601Z,100370.59
2023-03-22T01:57:29.513Z,100369.10
2023-03-22T01:58:37.135Z,100363.94
2023-03-22T01:59:42.983Z,100362.16
2023-03-22T02:00:52.965Z,100366.15
2023-03-22T02:02:22.290Z,100363.03
2023-03-22T02:04:00.037Z,100354.00
2023-03-22T02:05:04.215Z,100362.00
2023-03-22T02:06:07.610Z,100355.02
2023-03-22T02:07:15.808Z,100355.17
2023-03-22T02:08:20.292Z,100357.37
2023-03-22T02:09:41.358Z,100354.53
2023-03-22T02:10:44.690Z,100359.55
2023-03-22T02:12:13.417Z,100357.77
2023-03-22T02:14:13.065Z,100358.70
2023-03-22T02:15:50.842Z,100351.03
2023-03-22T02:18:16.556Z,100351.31
2023-03-22T02:19:30.633Z,100342.62
2023-03-22T02:20:55.270Z,100345.87
2023-03-22T02:22:30.593Z,100342.05
2023-03-22T02:24:05.537Z,100342.69
2023-03-22T02:25:20.168Z,100342.66
2023-03-22T02:26:44.130Z,100346.99
2023-03-22T02:28:08.113Z,100342.25
2023-03-22T02:29:45.165Z,100341.20
2023-03-22T02:31:29.005Z,100342.39
2023-03-22T02:32:43.726Z,100345.90
2023-03-22T02:33:55.826Z,100346.84
2023-03-22T02:35:33.507Z,100346.23
2023-03-22T02:37:01.769Z,100341.80
2023-03-22T02:38:38.593Z,100347.67
2023-03-22T02:40:10.686Z,100347.17
2023-03-22T02:41:35.910Z,100337.75
2023-03-22T02:42:55.747Z,100342.48
2023-03-22T02:44:01.216Z,100339.07
2023-03-22T02:45:14.369Z,100340.50
2023-03-22T02:46:32.767Z,100336.61
2023-03-22T02:47:38.697Z,100336.11
2023-03-22T02:48:47.552Z,100332.59
2023-03-22T02:50:03.635Z,100333.45
2023-03-22T02:51:15.528Z,100331.58
2023-03-22T02:52:44.860Z,100330.66
2023-03-22T02:54:03.577Z,100326.71
2023-03-22T02:55:13.301Z,100329.20
2023-03-22T02:56:33.731Z,100322.38
2023-03-22T02:57:52.776Z,100324.38
2023-03-22T02:58:59.541Z,100326.92
2023-03-22T03:00:10.469Z,100323.92
2023-03-22T03:01:20.084Z,100317.09
2023-03-22T03:02:23.293Z,100316.74
2023-03-22T03:03:30.541Z,100317.81
2023-03-22T03:04:37.950Z,100321.83
2023-03-22T03:05:48.712Z,100315.73
2023-03-22T03:06:55.061Z,100318.36
2023-03-22T03:08:02.513Z,100317.16
2023-03-22T03:09:06.480Z,100315.05
2023-03-22T03:10:11.488Z,100310.66
2023-03-22T03:11:14.293Z,100316.27
2023-03-22T03:12:23.301Z,100309.58
2023-03-22T03:13:27.327Z,100318.31
2023-03-22T03:14:32.832Z,100318.14
2023-03-22T03:15:39.503Z,100323.00
2023-03-22T03:16:42.548Z,100322.35
2023-03-22T03:17:51.755Z,100313.70
2023-03-22T03:19:02.848Z,100326.27
2023-03-22T03:20:42.629Z,100318.24
2023-03-22T03:22:09.672Z,100318.83
2023-03-22T03:23:24.510Z,100316.93
2023-03-22T03:24:37.344Z,100310.98
2023-03-22T03:26:04.549Z,100314.33
2023-03-22T03:27:10.806Z,100307.70
2023-03-22T03:28:38.533Z,100309.29
2023-03-22T03:29:48.953Z,100309.70
2023-03-22T03:31:03.588Z,100309.79
2023-03-22T03:32:15.545Z,100309.17
2023-03-22T03:33:22.309Z,100310.78
2023-03-22T03:34:34.012Z,100308.36
2023-03-22T03:35:46.704Z,100308.29
2023-03-22T03:37:02.975Z,100313.19
2023-03-22T03:38:13.463Z,100313.33
2023-03-22T03:39:18.841Z,100306.08
2023-03-22T03:40:29.058Z,100310.66
2023-03-22T03:41:34.671Z,100309.77
2023-03-22T03:42:41.473Z,100299.46
2023-03-22T03:43:46.890Z,100300.63
2023-03-22T03:44:50.023Z,100303.41
2023-03-22T03:45:54.335Z,100299.03
2023-03-22T03:46:57.788Z,100298.40
2023-03-22T03:48:05.066Z,100305.33
2023-03-22T03:49:10.395Z,100300.36
2023-03-22T03:50:16.342Z,100303.27
2023-03-22T03:51:19.441Z,100301.56
2023-03-22T03:52:24.644Z,100307.21
2023-03-22T03:53:28.774Z,100313.08
2023-03-22T03:54:31.869Z,100314.64
2023-03-22T03:55:34.838Z,100314.36
2023-03-22T03:56:37.603Z,100314.52
2023-03-22T03:57:40.487Z,100313.26
2023-03-22T03:58:43.286Z,100314.04
2023-03-22T03:59:46.407Z,100310.75
2023-03-22T04:00:57.464Z,100308.70
2023-03-22T04:02:23.958Z,100312.36
2023-03-22T04:03:27.766Z,100310.63
2023-03-22T04:04:48.486Z,100309.45
2023-03-22T04:05:51.495Z,100308.79
2023-03-22T04:07:00.622Z,100308.45
2023-03-22T04:08:05.376Z,100307.02
2023-03-22T04:09:09.104Z,100308.45
2023-03-22T04:10:15.479Z,100307.47
2023-03-22T04:11:18.428Z,100310.55
2023-03-22T04:12:23.348Z,100307.06
2023-03-22T04:13:44.634Z,100312.03
2023-03-22T04:14:50.801Z,100311.54
2023-03-22T04:15:58.097Z,100309.60
2023-03-22T04:17:01.308Z,100309.11
2023-03-22T04:18:07.138Z,100307.35
2023-03-22T04:19:10.070Z,100311.29
2023-03-22T04:20:14.039Z,100307.64
2023-03-22T04:21:17.003Z,100312.08
2023-03-22T04:22:25.311Z,100312.63
2023-03-22T04:23:28.168Z,100315.15
2023-03-22T04:24:31.090Z,100306.30
2023-03-22T04:25:33.999Z,100307.77
2023-03-22T04:26:43.372Z,100310.63
2023-03-22T04:28:13.736Z,100304.41
2023-03-22T04:29:16.642Z,100305.68
2023-03-22T04:30:24.719Z,100303.02
2023-03-22T04:31:37.613Z,100307.44
2023-03-22T04:32:51.553Z,100310.42
2023-03-22T04:33:56.834Z,100305.55
2023-03-22T04:35:06.668Z,100314.20
2023-03-22T04:36:10.387Z,100314.45
2023-03-22T04:37:27.592Z,100311.86
2023-03-22T04:39:05.954Z,100311.41
2023-03-22T04:40:16.444Z,100315.23
2023-03-22T04:41:31.517Z,100315.31
2023-03-22T04:42:34.894Z,100308.73
2023-03-22T04:43:50.956Z,100307.50
2023-03-22T04:44:53.927Z,100313.52
2023-03-22T04:45:58.412Z,100312.95
2023-03-22T04:47:04.940Z,100306.70
2023-03-22T04:48:10.552Z,100313.18
2023-03-22T04:49:13.563Z,100305.67
2023-03-22T04:50:17.329Z,100301.04
2023-03-22T04:51:25.546Z,100300.42
2023-03-22T04:52:41.610Z,100302.39
2023-03-22T04:53:44.999Z,100309.70
2023-03-22T04:54:48.198Z,100299.89
2023-03-22T04:55:50.950Z,100300.39
2023-03-22T04:56:54.065Z,100303.58
2023-03-22T04:57:58.615Z,100301.40
2023-03-22T04:59:01.486Z,100301.36
2023-03-22T05:00:08.410Z,100296.94
2023-03-22T05:01:13.675Z,100298.74
2023-03-22T05:02:17.223Z,100299.80
2023-03-22T05:03:21.644Z,100305.01
2023-03-22T05:04:27.364Z,100306.04
2023-03-22T05:05:36.383Z,100306.53
2023-03-22T05:06:39.506Z,100300.83
2023-03-22T05:07:47.680Z,100310.44
2023-03-22T05:08:50.650Z,100306.96
2023-03-22T05:09:54.671Z,100305.98
2023-03-22T05:10:59.718Z,100313.49
2023-03-22T05:12:02.548Z,100310.75
2023-03-22T05:13:21.547Z,100317.06
2023-03-22T05:14:24.930Z,100311.27
2023-03-22T05:15:28.187Z,100305.95
2023-03-22T05:16:31.009Z,100305.90
2023-03-22T05:17:33.805Z,100314.42
2023-03-22T05:18:42.478Z,100310.19
2023-03-22T05:19:45.865Z,100318.95
2023-03-22T05:20:48.767Z,100317.61
2023-03-22T05:21:58.522Z,100314.45
2023-03-22T05:23:10.991Z,100312.65
2023-03-22T05:24:14.646Z,100311.71
2023-03-22T05:25:19.549Z,100311.77
2023-03-22T05:26:24.524Z,100315.82
2023-03-22T05:27:31.760Z,100310.22
2023-03-22T05:28:54.663Z,100315.88
2023-03-22T05:30:14.415Z,100312.76
2023-03-22T05:31:23.431Z,100310.06
2023-03-22T05:32:33.049Z,100309.27
2023-03-22T05:33:36.178Z,100313.16
2023-03-22T05:34:42.746Z,100310.89
2023-03-22T05:35:54.161Z,100311.92
2023-03-22T05:36:58.246Z,100314.85
2023-03-22T05:38:08.256Z,100315.39
2023-03-22T05:39:16.461Z,100313.09
2023-03-22T05:40:19.393Z,100314.00
2023-03-22T05:41:23.093Z,100319.05
2023-03-22T05:42:26.945Z,100317.48
2023-03-22T05:43:29.829Z,100312.97
2023-03-22T05:44:32.637Z,100312.98
2023-03-22T05:45:42.859Z,100314.20
2023-03-22T05:47:00.743Z,100306.25
2023-03-22T05:48:10.785Z,100313.77
2023-03-22T05:49:13.566Z,100302.41
2023-03-22T05:50:19.612Z,100305.83
2023-03-22T05:51:25.816Z,100304.50
2023-03-22T05:52:29.720Z,100308.95
2023-03-22T05:54:04.513Z,100307.59
2023-03-22T05:55:14.240Z,100302.86
2023-03-22T05:56:17.853Z,100305.78
2023-03-22T05:57:21.675Z,100310.58
2023-03-22T05:58:25.109Z,100309.70
2023-03-22T05:59:28.572Z,100311.64
2023-03-22T06:00:35.791Z,100309.70
2023-03-22T06:02:04.797Z,100306.45
2023-03-22T06:03:08.239Z,100305.52
2023-03-22T06:04:14.573Z,100311.33
2023-03-22T06:05:26.451Z,100315.95
2023-03-22T06:06:29.376Z,100314.45
2023-03-22T06:07:40.660Z,100320.74
2023-03-22T06:08:57.845Z,100322.63
2023-03-22T06:10:07.110Z,100320.02
2023-03-22T06:11:10.050Z,100318.52
2023-03-22T06:12:15.518Z,100311.57
2023-03-22T06:13:21.221Z,100314.84
2023-03-22T06:14:25.185Z,100313.02
2023-03-22T06:15:54.183Z,100308.98
2023-03-22T06:17:00.939Z,100307.87
2023-03-22T06:18:03.750Z,100311.36
2023-03-22T06:19:11.157Z,100308.71
2023-03-22T06:20:15.549Z,100305.94
2023-03-22T06:21:24.132Z,100309.02
2023-03-22T06:22:27.011Z,100306.64
2023-03-22T06:23:29.889Z,100303.00
2023-03-22T06:24:33.202Z,100304.11
2023-03-22T06:25:36.793Z,100306.17
2023-03-22T06:26:40.390Z,100311.11
2023-03-22T06:27:43.311Z,100318.10
2023-03-22T06:28:46.678Z,100313.65
2023-03-22T06:29:51.073Z,100309.13
2023-03-22T06:30:56.391Z,100316.13
2023-03-22T06:32:20.711Z,100308.21
2023-03-22T06:33:23.632Z,100310.91
2023-03-22T06:34:34.027Z,100310.67
2023-03-22T06:35:37.183Z,100311.30
2023-03-22T06:36:42.487Z,100308.16
2023-03-22T06:37:52.902Z,100310.77
2023-03-22T06:38:57.437Z,100305.48
2023-03-22T06:40:00.256Z,100309.38
2023-03-22T06:41:03.293Z,100309.84
2023-03-22T06:42:06.435Z,100312.73
2023-03-22T06:43:09.802Z,100306.75
2023-03-22T06:44:14.902Z,100302.61
2023-03-22T06:45:33.502Z,100308.11
2023-03-22T06:46:37.175Z,100304.02
2023-03-22T06:47:46.554Z,100300.77
2023-03-22T06:48:59.924Z,100297.02
2023-03-22T06:50:02.944Z,100293.82
2023-03-22T06:51:25.733Z,100292.34
2023-03-22T06:52:29.152Z,100294.53
2023-03-22T06:53:33.662Z,100299.95
2023-03-22T06:54:36.697Z,100288.28
2023-03-22T06:55:40.624Z,100295.70
2023-03-22T06:56:48.184Z,100298.90
2023-03-22T06:57:51.058Z,100293.95
2023-03-22T06:58:54.807Z,100298.79
2023-03-22T06:59:57.571Z,100298.45
2023-03-22T07:01:01.016Z,100292.19
2023-03-22T07:02:04.604Z,100294.23
2023-03-22T07:03:07.686Z,100295.17
2023-03-22T07:04:33.281Z,100286.44
2023-03-22T07:05:36.063Z,100295.23
2023-03-22T07:06:38.938Z,100292.38
2023-03-22T07:07:41.754Z,100294.25
2023-03-22T07:08:44.598Z,100291.79
2023-03-22T07:09:48.168Z,100290.50
2023-03-22T07:10:51.868Z,100288.17
2023-03-22T07:11:57.370Z,100290.30
2023-03-22T07:13:00.481Z,100293.06
2023-03-22T07:14:03.590Z,100290.29
2023-03-22T07:15:24.331Z,100289.50
2023-03-22T07:16:35.872Z,100290.45
2023-03-22T07:17:41.367Z,100292.63
2023-03-22T07:18:44.268Z,100285.21
2023-03-22T07:19:47.039Z,100285.80
2023-03-22T07:20:51.007Z,100285.70
2023-03-22T07:21:53.801Z,100290.75
2023-03-22T07:22:57.350Z,100288.92
2023-03-22T07:24:01.229Z,100277.42
2023-03-22T07:25:05.406Z,100276.98
2023-03-22T07:26:08.669Z,100274.97
2023-03-22T07:27:14.418Z,100278.08
2023-03-22T07:28:17.210Z,100269.20
2023-03-22T07:29:19.994Z,100275.92
2023-03-22T07:30:22.766Z,100273.35
2023-03-22T07:31:26.070Z,100272.05
2023-03-22T07:32:33.545Z,100276.17
2023-03-22T07:33:45.354Z,100276.23
2023-03-22T07:34:48.154Z,100280.25
2023-03-22T07:35:52.761Z,100281.46
2023-03-22T07:36:57.055Z,100279.59
2023-03-22T07:38:00.921Z,100281.14
2023-03-22T07:39:08.697Z,100278.45
2023-03-22T07:40:15.646Z,100276.81
2023-03-22T07:41:18.721Z,100268.74
2023-03-22T07:42:38.865Z,100264.25
2023-03-22T07:44:07.916Z,100267.42
2023-03-22T07:45:23.792Z,100264.52
2023-03-22T07:46:45.142Z,100265.77
2023-03-22T07:47:58.049Z,100276.86
2023-03-22T07:49:33.053Z,100276.18
2023-03-22T07:50:59.180Z,100267.34
2023-03-22T07:52:02.120Z,100266.20
2023-03-22T07:53:05.059Z,100265.11
2023-03-22T07:54:07.993Z,100265.16
2023-03-22T07:55:13.001Z,100265.30
2023-03-22T07:56:15.770Z,100268.73
2023-03-22T07:57:18.594Z,100267.09
2023-03-22T07:58:30.735Z,100267.02
2023-03-22T07:59:34.117Z,100268.79
2023-03-22T08:00:37.814Z,100260.87
2023-03-22T08:02:03.979Z,100251.63
2023-03-22T08:03:14.882Z,100256.35
2023-03-22T08:04:55.026Z,100249.15
2023-03-22T08:06:21.523Z,100246.73
2023-03-22T08:07:27.875Z,100253.41
2023-03-22T08:08:30.701Z,100249.61
2023-03-22T08:09:33.663Z,100255.02
2023-03-22T08:10:37.081Z,100249.66
2023-03-22T08:11:40.522Z,100249.13
2023-03-22T08:12:43.722Z,100254.08
2023-03-22T08:13:55.349Z,100248.23
2023-03-22T08:14:58.570Z,100252.86
2023-03-22T08:16:02.143Z,100251.48
2023-03-22T08:17:06.173Z,100247.02
2023-03-22T08:18:09.093Z,100243.61
2023-03-22T08:19:15.505Z,100245.99
2023-03-22T08:20:18.912Z,100243.86
2023-03-22T08:21:27.473Z,100240.87
2023-03-22T08:22:31.282Z,100241.52
2023-03-22T08:23:53.359Z,100237.59
2023-03-22T08:25:19.801Z,100234.17
2023-03-22T08:26:23.390Z,100240.98
2023-03-22T08:27:27.559Z,100246.52
2023-03-22T08:28:30.589Z,100241.02
2023-03-22T08:29:33.980Z,100236.26
2023-03-22T08:30:38.734Z,100235.24
2023-03-22T08:31:42.430Z,100240.84
2023-03-22T08:32:46.480Z,100234.20
2023-03-22T08:33:49.949Z,100232.05
2023-03-22T08:34:52.908Z,100233.86
2023-03-22T08:36:25.695Z,100233.86
2023-03-22T08:37:34.028Z,100233.21
2023-03-22T08:38:37.692Z,100237.02
2023-03-22T08:39:43.511Z,100236.46
2023-03-22T08:41:05.131Z,100234.44
2023-03-22T08:42:07.963Z,100238.43
2023-03-22T08:43:11.726Z,100245.12
2023-03-22T08:44:14.569Z,100241.38
2023-03-22T08:45:17.702Z,100238.55
2023-03-22T08:46:26.487Z,100238.28
2023-03-22T08:47:30.178Z,100238.83
2023-03-22T08:48:38.056Z,100234.59
2023-03-22T08:49:45.877Z,100237.73
2023-03-22T08:50:54.916Z,100236.05
2023-03-22T08:52:07.847Z,100238.34
2023-03-22T08:53:18.248Z,100247.48
2023-03-22T08:54:28.254Z,100247.74
2023-03-22T08:55:45.008Z,100250.41
2023-03-22T08:56:48.339Z,100250.65
2023-03-22T08:58:01.528Z,100252.48
2023-03-22T08:59:24.744Z,100254.05
2023-03-22T09:00:47.794Z,100252.20
2023-03-22T09:02:06.640Z,100250.02
2023-03-22T09:03:09.538Z,100252.87
2023-03-22T09:04:13.422Z,100248.34
2023-03-22T09:05:16.676Z,100249.60
2023-03-22T09:06:19.762Z,100243.11
2023-03-22T09:07:22.823Z,100242.11
2023-03-22T09:08:33.968Z,100238.27
2023-03-22T09:09:41.660Z,100242.41
2023-03-22T09:10:47.878Z,100244.79
2023-03-22T09:11:50.927Z,100251.89
2023-03-22T09:12:53.876Z,100245.78
2023-03-22T09:13:56.752Z,100244.76
2023-03-22T09:14:59.586Z,100239.19
2023-03-22T09:16:04.250Z,100243.88
2023-03-22T09:17:09.062Z,100243.51
2023-03-22T09:18:12.278Z,100236.47
2023-03-22T09:19:15.516Z,100240.61
2023-03-22T09:20:18.807Z,100235.58
2023-03-22T09:21:22.429Z,100231.73
2023-03-22T09:22:52.677Z,100220.36
2023-03-22T09:23:56.528Z,100222.89
2023-03-22T09:25:05.053Z,100218.01
2023-03-22T09:26:09.500Z,100215.02
2023-03-22T09:27:12.598Z,100211.57
2023-03-22T09:28:17.180Z,100217.29
2023-03-22T09:29:20.604Z,100213.79
2023-03-22T09:30:23.829Z,100208.48
2023-03-22T09:31:27.001Z,100210.83
2023-03-22T09:32:41.079Z,100206.59
2023-03-22T09:33:44.196Z,100210.80
2023-03-22T09:34:46.952Z,100211.11
2023-03-22T09:35:50.097Z,100205.90
2023-03-22T09:36:55.738Z,100209.52
2023-03-22T09:38:03.585Z,100202.92
2023-03-22T09:39:07.655Z,100205.35
2023-03-22T09:40:11.870Z,100199.00
2023-03-22T09:41:21.913Z,100195.77
2023-03-22T09:42:33.015Z,100196.73
2023-03-22T09:43:43.636Z,100193.62
2023-03-22T09:44:49.782Z,100192.14
2023-03-22T09:45:55.737Z,100193.94
2023-03-22T09:47:02.201Z,100198.55
2023-03-22T09:48:12.242Z,100198.45
2023-03-22T09:49:21.282Z,100191.34
2023-03-22T09:50:32.432Z,100192.96
2023-03-22T09:51:44.843Z,100193.45
2023-03-22T09:52:48.384Z,100186.75
2023-03-22T09:53:51.127Z,100187.55
2023-03-22T09:54:53.945Z,100189.73
2023-03-22T09:56:13.908Z,100190.87
2023-03-22T09:57:26.319Z,100187.70
2023-03-22T09:58:55.180Z,100198.19
2023-03-22T10:00:16.821Z,100193.87
2023-03-22T10:01:35.238Z,100193.95
2023-03-22T10:03:05.368Z,100192.92
2023-03-22T10:04:19.031Z,100188.20
2023-03-22T10:05:36.088Z,100193.85
2023-03-22T10:06:43.309Z,100195.23
2023-03-22T10:08:04.289Z,100196.17
2023-03-22T10:09:19.437Z,100197.05
2023-03-22T10:10:24.583Z,100193.36
2023-03-22T10:11:47.232Z,100191.14
2023-03-22T10:13:15.392Z,100194.05
2023-03-22T10:14:41.566Z,100190.45
2023-03-22T10:15:51.572Z,100193.88
2023-03-22T10:16:56.611Z,100189.55
2023-03-22T10:18:02.361Z,100194.88
2023-03-22T10:19:24.244Z,100198.55
2023-03-22T10:20:35.878Z,100195.69
2023-03-22T10:21:39.092Z,100194.44
2023-03-22T10:22:46.231Z,100195.56
2023-03-22T10:24:04.402Z,100192.52
2023-03-22T10:25:08.746Z,100191.21
2023-03-22T10:26:26.404Z,100190.31
2023-03-22T10:27:31.635Z,100190.70
2023-03-22T10:28:34.351Z,100195.41
2023-03-22T10:29:40.964Z,100190.23
2023-03-22T10:30:51.017Z,100190.73
2023-03-22T10:31:54.517Z,100187.38
2023-03-22T10:33:01.769Z,100187.39
2023-03-22T10:34:11.536Z,100186.76
2023-03-22T10:35:15.997Z,100187.27
2023-03-22T10:36:23.583Z,100184.23
2023-03-22T10:37:35.828Z,100185.82
2023-03-22T10:38:47.072Z,100181.87
2023-03-22T10:39:54.366Z,100185.85
2023-03-22T10:40:59.249Z,100182.30
2023-03-22T10:42:05.924Z,100182.39
2023-03-22T10:43:12.002Z,100180.29
2023-03-22T10:44:17.390Z,100180.98
2023-03-22T10:45:21.450Z,100190.22
2023-03-22T10:46:33.509Z,100179.67
2023-03-22T10:47:48.643Z,100179.96
2023-03-22T10:48:57.301Z,100178.77
2023-03-22T10:50:04.720Z,100183.16
2023-03-22T10:51:08.383Z,100179.36
2023-03-22T10:52:28.641Z,100177.63
2023-03-22T10:53:46.017Z,100179.52
2023-03-22T10:54:48.880Z,100177.85
2023-03-22T10:55:51.730Z,100174.68
2023-03-22T10:56:54.641Z,100169.30
2023-03-22T10:58:16.614Z,100168.43
2023-03-22T10:59:47.548Z,100167.77
2023-03-22T11:00:57.177Z,100163.85
2023-03-22T11:02:01.763Z,100162.13
2023-03-22T11:03:07.143Z,100160.92
2023-03-22T11:04:15.196Z,100160.44
2023-03-22T11:05:30.035Z,100162.71
2023-03-22T11:06:38.556Z,100160.84
2023-03-22T11:07:45.288Z,100161.06
2023-03-22T11:09:02.724Z,100160.14
2023-03-22T11:10:08.000Z,100157.38
2023-03-22T11:11:23.623Z,100155.09
2023-03-22T11:12:26.438Z,100154.66
2023-03-22T11:13:29.425Z,100155.27
2023-03-22T11:14:37.647Z,100154.45
2023-03-22T11:15:49.139Z,100153.38
2023-03-22T11:16:51.991Z,100153.92
2023-03-22T11:18:00.535Z,100152.57
2023-03-22T11:19:03.851Z,100152.89
2023-03-22T11:20:07.923Z,100155.27
2023-03-22T11:21:12.649Z,100155.01
2023-03-22T11:22:36.448Z,100154.80
2023-03-22T11:23:46.877Z,100157.91
2023-03-22T11:24:51.616Z,100154.97
2023-03-22T11:25:59.220Z,100154.63
2023-03-22T11:27:20.060Z,100154.73
2023-03-22T11:28:31.754Z,100153.81
2023-03-22T11:29:48.333Z,100150.98
2023-03-22T11:31:04.164Z,100151.04
2023-03-22T11:32:26.516Z,100147.89
2023-03-22T11:33:29.961Z,100148.17
2023-03-22T11:34:32.723Z,100148.13
2023-03-22T11:35:38.881Z,100145.60
2023-03-22T11:37:53.886Z,100142.48
2023-03-22T11:39:02.466Z,100136.84
2023-03-22T11:40:10.867Z,100141.58
2023-03-22T11:41:13.582Z,100142.45
2023-03-22T11:42:20.974Z,100139.37
2023-03-22T11:43:28.139Z,100136.11
2023-03-22T11:44:37.887Z,100138.39
2023-03-22T11:45:43.344Z,100135.63
2023-03-22T11:46:57.910Z,100139.60
2023-03-22T11:48:03.582Z,100135.67
2023-03-22T11:49:14.834Z,100138.08
2023-03-22T11:50:30.380Z,100128.34
2023-03-22T11:51:37.281Z,100130.95
2023-03-22T11:52:40.024Z,100130.80
2023-03-22T11:53:47.408Z,100127.64
2023-03-22T11:54:51.238Z,100125.14
2023-03-22T11:55:57.105Z,100124.86
2023-03-22T11:57:04.495Z,100125.20
2023-03-22T11:58:07.297Z,100121.95
2023-03-22T11:59:16.659Z,100120.36
2023-03-22T12:00:23.733Z,100116.98
2023-03-22T12:01:38.931Z,100116.71
2023-03-22T12:02:51.224Z,100116.00
2023-03-22T12:03:58.076Z,100111.33
2023-03-22T12:05:03.808Z,100113.33
2023-03-22T12:06:22.887Z,100112.08
2023-03-22T12:07:28.417Z,100115.91
2023-03-22T12:08:42.872Z,100110.86
2023-03-22T12:09:54.523Z,100110.53
2023-03-22T12:11:07.025Z,100106.18
2023-03-22T12:12:16.700Z,100106.83
2023-03-22T12:13:27.048Z,100103.59
2023-03-22T12:14:46.757Z,100107.06
2023-03-22T12:15:56.554Z,100105.95
2023-03-22T12:17:11.790Z,100099.28
2023-03-22T12:18:34.431Z,100098.34
2023-03-22T12:20:12.869Z,100094.52
2023-03-22T12:21:16.702Z,100091.75
2023-03-22T12:22:32.712Z,100091.52
2023-03-22T12:23:35.941Z,100092.61
2023-03-22T12:24:38.741Z,100091.14
2023-03-22T12:25:46.691Z,100088.20
2023-03-22T12:26:52.914Z,100086.16
2023-03-22T12:28:07.201Z,100085.31
2023-03-22T12:29:18.324Z,100084.72
2023-03-22T12:30:25.680Z,100077.59
2023-03-22T12:31:37.489Z,100082.15
2023-03-22T12:32:45.271Z,100080.88
2023-03-22T12:33:51.547Z,100078.42
2023-03-22T12:35:09.248Z,100073.84
2023-03-22T12:36:23.908Z,100071.24
2023-03-22T12:37:34.931Z,100070.91
2023-03-22T12:38:43.625Z,100070.04
2023-03-22T12:39:51.908Z,100066.95
2023-03-22T12:40:57.971Z,100065.35
2023-03-22T12:42:13.437Z,100069.90
2023-03-22T12:43:27.902Z,100071.94
2023-03-22T12:44:39.298Z,100067.80
2023-03-22T12:45:56.066Z,100063.67
2023-03-22T12:47:01.331Z,100063.41
2023-03-22T12:48:16.998Z,100064.80
2023-03-22T12:49:44.657Z,100072.44
2023-03-22T12:50:53.220Z,100064.20
2023-03-22T12:52:06.497Z,100065.88
2023-03-22T12:53:15.370Z,100067.87
2023-03-22T12:54:23.027Z,100070.84
2023-03-22T12:55:30.805Z,100070.30
2023-03-22T12:56:40.277Z,100072.48
2023-03-22T12:57:43.004Z,100072.66
2023-03-22T12:58:54.709Z,100072.11
2023-03-22T13:00:05.365Z,100069.99
2023-03-22T13:01:33.553Z,100067.27
2023-03-22T13:02:37.110Z,100069.66
2023-03-22T13:03:52.667Z,100060.58
2023-03-22T13:05:00.939Z,100064.28
2023-03-22T13:06:26.066Z,100061.77
2023-03-22T13:07:31.678Z,100062.98
2023-03-22T13:09:16.070Z,100065.75